sensor_id;sensor_type;location;lat;lon;timestamp;pressure;altitude;pressure_sealevel;temperature;humidity
51496;BME280;37572;52.094;4.870;2023-05-01T00:00:07;101872.81;;;13.84;54.73
51496;BME280;37572;52.094;4.870;2023-05-01T00:02:34;101870.00;;;13.86;54.83
51496;BME280;37572;52.094;4.870;2023-05-01T00:04:59;101860.13;;;13.86;54.69
51496;BME280;37572;52.094;4.870;2023-05-01T00:07:25;101858.13;;;13.88;54.95
51496;BME280;37572;52.094;4.870;2023-05-01T00:09:53;101856.31;;;13.89;54.54
51496;BME280;37572;52.094;4.870;2023-05-01T00:12:18;101857.28;;;13.88;54.44
51496;BME280;37572;52.094;4.870;2023-05-01T00:14:44;101857.91;;;13.82;54.50
51496;BME280;37572;52.094;4.870;2023-05-01T00:17:09;101853.47;;;13.73;54.25
51496;BME280;37572;52.094;4.870;2023-05-01T00:19:34;101843.94;;;13.60;54.18
51496;BME280;37572;52.094;4.870;2023-05-01T00:21:59;101844.00;;;13.50;54.33
51496;BME280;37572;52.094;4.870;2023-05-01T00:24:25;101841.97;;;13.44;54.24
51496;BME280;37572;52.094;4.870;2023-05-01T00:26:51;101840.03;;;13.37;54.21
51496;BME280;37572;52.094;4.870;2023-05-01T00:29:16;101839.59;;;13.31;54.20
51496;BME280;37572;52.094;4.870;2023-05-01T00:31:42;101832.00;;;13.27;54.33
51496;BME280;37572;52.094;4.870;2023-05-01T00:34:08;101833.31;;;13.23;54.35
51496;BME280;37572;52.094;4.870;2023-05-01T00:36:35;101834.59;;;13.19;54.29
51496;BME280;37572;52.094;4.870;2023-05-01T00:39:00;101828.00;;;13.13;54.29
51496;BME280;37572;52.094;4.870;2023-05-01T00:41:26;101827.63;;;13.08;54.35
51496;BME280;37572;52.094;4.870;2023-05-01T00:43:51;101819.34;;;13.01;54.30
51496;BME280;37572;52.094;4.870;2023-05-01T00:46:17;101819.91;;;12.95;54.22
51496;BME280;37572;52.094;4.870;2023-05-01T00:48:43;101815.88;;;12.91;54.14
51496;BME280;37572;52.094;4.870;2023-05-01T00:51:08;101811.66;;;12.88;54.33
51496;BME280;37572;52.094;4.870;2023-05-01T00:53:35;101805.63;;;12.86;54.40
51496;BME280;37572;52.094;4.870;2023-05-01T00:56:01;101802.25;;;12.84;54.34
51496;BME280;37572;52.094;4.870;2023-05-01T00:58:26;101796.19;;;12.82;54.48
51496;BME280;37572;52.094;4.870;2023-05-01T01:00:53;101798.16;;;12.80;54.64
51496;BME280;37572;52.094;4.870;2023-05-01T01:03:19;101793.97;;;12.77;54.46
51496;BME280;37572;52.094;4.870;2023-05-01T01:05:50;101789.06;;;12.73;54.49
51496;BME280;37572;52.094;4.870;2023-05-01T01:08:32;101785.84;;;12.69;54.57
51496;BME280;37572;52.094;4.870;2023-05-01T01:11:23;101778.25;;;12.65;54.43
51496;BME280;37572;52.094;4.870;2023-05-01T01:14:07;101783.91;;;12.62;54.65
51496;BME280;37572;52.094;4.870;2023-05-01T01:16:42;101769.84;;;12.59;54.54
51496;BME280;37572;52.094;4.870;2023-05-01T01:21:57;101768.16;;;12.58;54.68
51496;BME280;37572;52.094;4.870;2023-05-01T01:27:24;101764.66;;;12.58;54.86
51496;BME280;37572;52.094;4.870;2023-05-01T01:35:18;101750.34;;;12.49;54.73
51496;BME280;37572;52.094;4.870;2023-05-01T01:37:50;101749.63;;;12.47;54.81
51496;BME280;37572;52.094;4.870;2023-05-01T01:40:23;101742.63;;;12.46;54.94
51496;BME280;37572;52.094;4.870;2023-05-01T01:42:57;101736.97;;;12.49;55.06
51496;BME280;37572;52.094;4.870;2023-05-01T01:45:45;101738.38;;;12.53;54.96
51496;BME280;37572;52.094;4.870;2023-05-01T01:48:14;101737.78;;;12.59;55.04
51496;BME280;37572;52.094;4.870;2023-05-01T01:50:42;101728.47;;;12.64;55.05
51496;BME280;37572;52.094;4.870;2023-05-01T01:53:12;101724.53;;;12.68;55.02
51496;BME280;37572;52.094;4.870;2023-05-01T01:55:39;101720.41;;;12.73;54.94
51496;BME280;37572;52.094;4.870;2023-05-01T01:58:08;101714.63;;;12.78;55.19
51496;BME280;37572;52.094;4.870;2023-05-01T02:00:34;101714.34;;;12.81;55.18
51496;BME280;37572;52.094;4.870;2023-05-01T02:03:01;101708.16;;;12.81;54.87
51496;BME280;37572;52.094;4.870;2023-05-01T02:05:27;101703.34;;;12.84;55.11
51496;BME280;37572;52.094;4.870;2023-05-01T02:07:55;101697.38;;;12.90;54.97
51496;BME280;37572;52.094;4.870;2023-05-01T02:10:21;101693.97;;;12.98;55.05
51496;BME280;37572;52.094;4.870;2023-05-01T02:12:50;101686.88;;;13.07;55.14
51496;BME280;37572;52.094;4.870;2023-05-01T02:15:17;101678.94;;;13.15;54.95
51496;BME280;37572;52.094;4.870;2023-05-01T02:17:43;101680.03;;;13.22;54.84
51496;BME280;37572;52.094;4.870;2023-05-01T02:20:10;101678.25;;;13.31;54.62
51496;BME280;37572;52.094;4.870;2023-05-01T02:22:38;101673.31;;;13.36;54.54
51496;BME280;37572;52.094;4.870;2023-05-01T02:25:06;101682.25;;;13.45;54.52
51496;BME280;37572;52.094;4.870;2023-05-01T02:27:38;101674.31;;;13.53;54.23
51496;BME280;37572;52.094;4.870;2023-05-01T02:30:05;101680.84;;;13.59;54.13
51496;BME280;37572;52.094;4.870;2023-05-01T02:32:31;101669.84;;;13.62;53.51
51496;BME280;37572;52.094;4.870;2023-05-01T02:34:57;101657.31;;;13.62;53.98
51496;BME280;37572;52.094;4.870;2023-05-01T02:37:23;101665.34;;;13.62;53.93
51496;BME280;37572;52.094;4.870;2023-05-01T02:39:49;101655.78;;;13.60;53.89
51496;BME280;37572;52.094;4.870;2023-05-01T02:42:16;101661.13;;;13.60;53.82
51496;BME280;37572;52.094;4.870;2023-05-01T02:44:53;101666.50;;;13.60;54.16
51496;BME280;37572;52.094;4.870;2023-05-01T02:47:22;101658.25;;;13.53;53.83
51496;BME280;37572;52.094;4.870;2023-05-01T02:49:48;101652.53;;;13.48;53.82
51496;BME280;37572;52.094;4.870;2023-05-01T02:52:16;101647.31;;;13.46;54.08
51496;BME280;37572;52.094;4.870;2023-05-01T02:54:43;101648.16;;;13.47;53.88
51496;BME280;37572;52.094;4.870;2023-05-01T02:57:12;101636.31;;;13.49;53.82
51496;BME280;37572;52.094;4.870;2023-05-01T02:59:38;101639.50;;;13.53;53.74
51496;BME280;37572;52.094;4.870;2023-05-01T03:02:05;101638.69;;;13.53;53.75
51496;BME280;37572;52.094;4.870;2023-05-01T03:04:30;101640.66;;;13.50;53.76
51496;BME280;37572;52.094;4.870;2023-05-01T03:06:56;101643.50;;;13.49;53.76
51496;BME280;37572;52.094;4.870;2023-05-01T03:09:21;101642.13;;;13.45;53.99
51496;BME280;37572;52.094;4.870;2023-05-01T03:11:47;101640.06;;;13.39;53.89
51496;BME280;37572;52.094;4.870;2023-05-01T03:14:12;101636.28;;;13.31;53.82
51496;BME280;37572;52.094;4.870;2023-05-01T03:16:38;101630.19;;;13.21;53.85
51496;BME280;37572;52.094;4.870;2023-05-01T03:19:03;101632.13;;;13.11;53.89
51496;BME280;37572;52.094;4.870;2023-05-01T03:21:30;101633.84;;;13.02;53.79
51496;BME280;37572;52.094;4.870;2023-05-01T03:23:56;101634.63;;;12.94;53.85
51496;BME280;37572;52.094;4.870;2023-05-01T03:26:21;101631.41;;;12.91;54.27
51496;BME280;37572;52.094;4.870;2023-05-01T03:28:46;101627.19;;;12.88;54.33
51496;BME280;37572;52.094;4.870;2023-05-01T03:31:12;101620.19;;;12.87;54.33
51496;BME280;37572;52.094;4.870;2023-05-01T03:33:38;101613.84;;;12.88;54.43
51496;BME280;37572;52.094;4.870;2023-05-01T03:36:04;101617.53;;;12.87;54.44
51496;BME280;37572;52.094;4.870;2023-05-01T03:38:30;101611.16;;;12.88;54.72
51496;BME280;37572;52.094;4.870;2023-05-01T03:40:56;101612.72;;;12.91;54.71
51496;BME280;37572;52.094;4.870;2023-05-01T03:43:21;101614.22;;;12.93;54.75
51496;BME280;37572;52.094;4.870;2023-05-01T03:45:48;101606.88;;;12.95;54.75
51496;BME280;37572;52.094;4.870;2023-05-01T03:48:13;101617.28;;;12.99;55.01
51496;BME280;37572;52.094;4.870;2023-05-01T03:50:39;101607.44;;;12.99;54.89
51496;BME280;37572;52.094;4.870;2023-05-01T03:53:04;101603.75;;;13.00;54.79
51496;BME280;37572;52.094;4.870;2023-05-01T03:55:29;101602.91;;;13.00;55.24
51496;BME280;37572;52.094;4.870;2023-05-01T03:57:54;101601.38;;;12.97;55.00
51496;BME280;37572;52.094;4.870;2023-05-01T04:00:20;101597.19;;;12.94;54.98
51496;BME280;37572;52.094;4.870;2023-05-01T04:02:45;101596.66;;;12.91;54.85
51496;BME280;37572;52.094;4.870;2023-05-01T04:05:11;101599.34;;;12.91;55.12
51496;BME280;37572;52.094;4.870;2023-05-01T04:07:37;101595.50;;;12.93;55.10
51496;BME280;37572;52.094;4.870;2023-05-01T04:10:02;101588.00;;;12.97;55.13
51496;BME280;37572;52.094;4.870;2023-05-01T04:12:28;101594.59;;;13.03;55.33
51496;BME280;37572;52.094;4.870;2023-05-01T04:14:54;101591.63;;;13.06;55.26
51496;BME280;37572;52.094;4.870;2023-05-01T04:17:19;101583.75;;;13.04;55.21
51496;BME280;37572;52.094;4.870;2023-05-01T04:19:45;101589.78;;;13.06;55.26
51496;BME280;37572;52.094;4.870;2023-05-01T04:22:12;101579.09;;;13.06;55.29
51496;BME280;37572;52.094;4.870;2023-05-01T04:24:37;101586.97;;;13.08;55.24
51496;BME280;37572;52.094;4.870;2023-05-01T04:27:02;101581.31;;;13.11;55.13
51496;BME280;37572;52.094;4.870;2023-05-01T04:29:28;101576.47;;;13.14;55.40
51496;BME280;37572;52.094;4.870;2023-05-01T04:31:54;101581.22;;;13.21;55.31
51496;BME280;37572;52.094;4.870;2023-05-01T04:34:19;101582.56;;;13.25;55.23
51496;BME280;37572;52.094;4.870;2023-05-01T04:36:44;101575.09;;;13.28;55.11
51496;BME280;37572;52.094;4.870;2023-05-01T04:39:10;101580.84;;;13.33;55.19
51496;BME280;37572;52.094;4.870;2023-05-01T04:41:35;101580.38;;;13.38;54.88
51496;BME280;37572;52.094;4.870;2023-05-01T04:44:01;101584.25;;;13.44;54.71
51496;BME280;37572;52.094;4.870;2023-05-01T04:46:26;101580.28;;;13.48;54.71
51496;BME280;37572;52.094;4.870;2023-05-01T04:48:52;101575.44;;;13.51;54.46
51496;BME280;37572;52.094;4.870;2023-05-01T04:51:17;101581.47;;;13.54;54.47
51496;BME280;37572;52.094;4.870;2023-05-01T04:53:43;101579.50;;;13.56;54.39
51496;BME280;37572;52.094;4.870;2023-05-01T04:56:09;101584.84;;;13.56;54.16
51496;BME280;37572;52.094;4.870;2023-05-01T04:58:34;101579.31;;;13.57;54.10
51496;BME280;37572;52.094;4.870;2023-05-01T05:00:59;101577.34;;;13.59;54.01
51496;BME280;37572;52.094;4.870;2023-05-01T05:03:25;101579.00;;;13.60;53.88
51496;BME280;37572;52.094;4.870;2023-05-01T05:05:50;101580.69;;;13.61;53.77
51496;BME280;37572;52.094;4.870;2023-05-01T05:08:15;101574.38;;;13.62;53.88
51496;BME280;37572;52.094;4.870;2023-05-01T05:10:40;101583.38;;;13.61;53.75
51496;BME280;37572;52.094;4.870;2023-05-01T05:13:06;101577.19;;;13.61;53.54
51496;BME280;37572;52.094;4.870;2023-05-01T05:15:31;101578.84;;;13.62;53.79
51496;BME280;37572;52.094;4.870;2023-05-01T05:17:56;101580.41;;;13.64;53.58
51496;BME280;37572;52.094;4.870;2023-05-01T05:20:22;101584.72;;;13.65;53.67
51496;BME280;37572;52.094;4.870;2023-05-01T05:22:47;101581.06;;;13.66;53.71
51496;BME280;37572;52.094;4.870;2023-05-01T05:25:12;101583.59;;;13.68;53.59
51496;BME280;37572;52.094;4.870;2023-05-01T05:27:37;101584.09;;;13.72;53.75
51496;BME280;37572;52.094;4.870;2023-05-01T05:30:04;101583.13;;;13.73;53.53
51496;BME280;37572;52.094;4.870;2023-05-01T05:32:30;101578.28;;;13.76;53.50
51496;BME280;37572;52.094;4.870;2023-05-01T05:34:55;101577.81;;;13.81;53.33
51496;BME280;37572;52.094;4.870;2023-05-01T05:37:21;101576.50;;;13.85;53.58
51496;BME280;37572;52.094;4.870;2023-05-01T05:39:46;101580.53;;;13.89;53.27
51496;BME280;37572;52.094;4.870;2023-05-01T05:42:11;101577.34;;;13.94;53.57
51496;BME280;37572;52.094;4.870;2023-05-01T05:44:37;101577.91;;;13.97;53.70
51496;BME280;37572;52.094;4.870;2023-05-01T05:47:03;101571.53;;;13.98;53.49
51496;BME280;37572;52.094;4.870;2023-05-01T05:49:28;101573.22;;;13.99;53.86
51496;BME280;37572;52.094;4.870;2023-05-01T05:51:54;101573.06;;;14.01;53.85
51496;BME280;37572;52.094;4.870;2023-05-01T05:54:20;101566.53;;;14.03;53.85
51496;BME280;37572;52.094;4.870;2023-05-01T05:56:45;101575.94;;;14.07;54.12
51496;BME280;37572;52.094;4.870;2023-05-01T05:59:11;101570.44;;;14.09;54.14
51496;BME280;37572;52.094;4.870;2023-05-01T06:01:36;101561.38;;;14.10;54.08
51496;BME280;37572;52.094;4.870;2023-05-01T06:04:02;101562.22;;;14.11;54.39
51496;BME280;37572;52.094;4.870;2023-05-01T06:06:27;101562.91;;;14.13;54.23
51496;BME280;37572;52.094;4.870;2023-05-01T06:08:53;101554.72;;;14.14;54.44
51496;BME280;37572;52.094;4.870;2023-05-01T06:11:18;101554.56;;;14.16;54.43
51496;BME280;37572;52.094;4.870;2023-05-01T06:13:45;101553.38;;;14.18;54.64
51496;BME280;37572;52.094;4.870;2023-05-01T06:16:10;101557.41;;;14.22;54.72
51496;BME280;37572;52.094;4.870;2023-05-01T06:18:36;101551.38;;;14.29;54.79
51496;BME280;37572;52.094;4.870;2023-05-01T06:21:01;101549.06;;;14.34;54.92
51496;BME280;37572;52.094;4.870;2023-05-01T06:23:27;101550.25;;;14.39;54.71
51496;BME280;37572;52.094;4.870;2023-05-01T06:25:52;101552.47;;;14.44;54.56
51496;BME280;37572;52.094;4.870;2023-05-01T06:28:18;101551.13;;;14.48;54.85
51496;BME280;37572;52.094;4.870;2023-05-01T06:30:43;101555.84;;;14.54;54.66
51496;BME280;37572;52.094;4.870;2023-05-01T06:33:08;101551.69;;;14.60;54.53
51496;BME280;37572;52.094;4.870;2023-05-01T06:35:37;101550.88;;;14.68;54.45
51496;BME280;37572;52.094;4.870;2023-05-01T06:38:02;101556.41;;;14.74;54.02
51496;BME280;37572;52.094;4.870;2023-05-01T06:40:28;101565.63;;;14.80;54.03
51496;BME280;37572;52.094;4.870;2023-05-01T06:42:56;101561.44;;;14.86;53.92
51496;BME280;37572;52.094;4.870;2023-05-01T06:45:21;101566.81;;;14.94;53.72
51496;BME280;37572;52.094;4.870;2023-05-01T06:47:46;101564.81;;;15.04;53.36
51496;BME280;37572;52.094;4.870;2023-05-01T06:50:12;101563.78;;;15.13;53.26
51496;BME280;37572;52.094;4.870;2023-05-01T06:52:38;101564.44;;;15.24;53.29
51496;BME280;37572;52.094;4.870;2023-05-01T06:55:04;101558.09;;;15.33;52.97
51496;BME280;37572;52.094;4.870;2023-05-01T06:57:30;101566.78;;;15.43;52.96
51496;BME280;37572;52.094;4.870;2023-05-01T06:59:55;101562.06;;;15.53;52.98
51496;BME280;37572;52.094;4.870;2023-05-01T07:02:20;101560.88;;;15.64;53.07
51496;BME280;37572;52.094;4.870;2023-05-01T07:04:46;101557.88;;;15.76;52.92
51496;BME280;37572;52.094;4.870;2023-05-01T07:07:11;101560.38;;;15.85;52.66
51496;BME280;37572;52.094;4.870;2023-05-01T07:09:37;101554.94;;;15.94;52.47
51496;BME280;37572;52.094;4.870;2023-05-01T07:12:03;101556.44;;;16.04;52.49
51496;BME280;37572;52.094;4.870;2023-05-01T07:14:29;101559.09;;;16.13;52.75
51496;BME280;37572;52.094;4.870;2023-05-01T07:16:55;101563.22;;;16.23;52.35
51496;BME280;37572;52.094;4.870;2023-05-01T07:19:20;101564.03;;;16.32;52.10
51496;BME280;37572;52.094;4.870;2023-05-01T07:21:45;101564.81;;;16.41;51.98
51496;BME280;37572;52.094;4.870;2023-05-01T07:24:11;101567.28;;;16.51;51.84
51496;BME280;37572;52.094;4.870;2023-05-01T07:26:36;101562.69;;;16.59;51.81
51496;BME280;37572;52.094;4.870;2023-05-01T07:29:03;101559.94;;;16.68;51.53
51496;BME280;37572;52.094;4.870;2023-05-01T07:31:28;101566.94;;;16.77;51.67
51496;BME280;37572;52.094;4.870;2023-05-01T07:33:53;101566.09;;;16.85;51.71
51496;BME280;37572;52.094;4.870;2023-05-01T07:36:19;101560.81;;;16.91;51.37
51496;BME280;37572;52.094;4.870;2023-05-01T07:38:46;101562.81;;;16.97;51.21
51496;BME280;37572;52.094;4.870;2023-05-01T07:41:12;101559.56;;;17.02;51.09
51496;BME280;37572;52.094;4.870;2023-05-01T07:43:37;101562.38;;;17.09;50.75
51496;BME280;37572;52.094;4.870;2023-05-01T07:46:02;101556.25;;;17.15;50.98
51496;BME280;37572;52.094;4.870;2023-05-01T07:48:28;101556.19;;;17.23;51.09
51496;BME280;37572;52.094;4.870;2023-05-01T07:50:54;101556.75;;;17.33;51.43
51496;BME280;37572;52.094;4.870;2023-05-01T07:53:19;101555.13;;;17.47;51.06
51496;BME280;37572;52.094;4.870;2023-05-01T07:55:47;101565.91;;;17.62;51.15
51496;BME280;37572;52.094;4.870;2023-05-01T07:58:12;101567.13;;;17.74;50.67
51496;BME280;37572;52.094;4.870;2023-05-01T08:00:37;101569.53;;;17.84;50.77
51496;BME280;37572;52.094;4.870;2023-05-01T08:03:03;101564.53;;;17.96;50.65
51496;BME280;37572;52.094;4.870;2023-05-01T08:05:28;101568.16;;;18.03;50.96
51496;BME280;37572;52.094;4.870;2023-05-01T08:07:53;101565.34;;;18.11;50.39
51496;BME280;37572;52.094;4.870;2023-05-01T08:10:19;101568.41;;;18.23;50.46
51496;BME280;37572;52.094;4.870;2023-05-01T08:12:44;101569.44;;;18.37;50.69
51496;BME280;37572;52.094;4.870;2023-05-01T08:15:10;101577.09;;;18.55;50.49
51496;BME280;37572;52.094;4.870;2023-05-01T08:17:35;101567.66;;;18.66;50.52
51496;BME280;37572;52.094;4.870;2023-05-01T08:20:03;101572.56;;;18.77;50.14
51496;BME280;37572;52.094;4.870;2023-05-01T08:22:28;101570.59;;;18.86;50.24
51496;BME280;37572;52.094;4.870;2023-05-01T08:24:54;101567.13;;;18.92;49.88
51496;BME280;37572;52.094;4.870;2023-05-01T08:27:19;101570.72;;;18.99;50.12
51496;BME280;37572;52.094;4.870;2023-05-01T08:29:44;101561.22;;;19.03;49.65
51496;BME280;37572;52.094;4.870;2023-05-01T08:32:10;101564.34;;;19.07;49.75
51496;BME280;37572;52.094;4.870;2023-05-01T08:34:35;101566.69;;;19.10;49.91
51496;BME280;37572;52.094;4.870;2023-05-01T08:37:01;101564.59;;;19.12;49.77
51496;BME280;37572;52.094;4.870;2023-05-01T08:39:26;101559.84;;;19.14;49.82
51496;BME280;37572;52.094;4.870;2023-05-01T08:41:52;101565.50;;;19.19;49.51
51496;BME280;37572;52.094;4.870;2023-05-01T08:44:19;101567.41;;;19.26;49.98
51496;BME280;37572;52.094;4.870;2023-05-01T08:46:51;101555.41;;;19.35;49.83
51496;BME280;37572;52.094;4.870;2023-05-01T08:49:18;101559.66;;;19.44;49.56
51496;BME280;37572;52.094;4.870;2023-05-01T08:51:46;101561.44;;;19.58;49.64
51496;BME280;37572;52.094;4.870;2023-05-01T08:54:18;101562.97;;;19.74;49.49
51496;BME280;37572;52.094;4.870;2023-05-01T08:56:45;101565.19;;;19.92;49.45
51496;BME280;37572;52.094;4.870;2023-05-01T08:59:12;101565.88;;;20.08;49.65
51496;BME280;37572;52.094;4.870;2023-05-01T09:01:40;101565.94;;;20.21;49.16
51496;BME280;37572;52.094;4.870;2023-05-01T09:04:06;101567.22;;;20.32;49.06
51496;BME280;37572;52.094;4.870;2023-05-01T09:06:33;101573.91;;;20.43;49.02
51496;BME280;37572;52.094;4.870;2023-05-01T09:08:58;101578.75;;;20.54;48.64
51496;BME280;37572;52.094;4.870;2023-05-01T09:11:24;101578.56;;;20.62;48.44
51496;BME280;37572;52.094;4.870;2023-05-01T09:13:51;101576.53;;;20.71;48.19
51496;BME280;37572;52.094;4.870;2023-05-01T09:16:17;101579.44;;;20.76;47.86
51496;BME280;37572;52.094;4.870;2023-05-01T09:18:43;101579.84;;;20.80;47.67
51496;BME280;37572;52.094;4.870;2023-05-01T09:21:09;101584.25;;;20.87;47.87
51496;BME280;37572;52.094;4.870;2023-05-01T09:23:34;101588.44;;;20.90;47.35
51496;BME280;37572;52.094;4.870;2023-05-01T09:26:03;101586.34;;;20.92;47.03
51496;BME280;37572;52.094;4.870;2023-05-01T09:28:45;101593.22;;;20.95;46.99
51496;BME280;37572;52.094;4.870;2023-05-01T09:31:29;101594.47;;;20.92;46.34
51496;BME280;37572;52.094;4.870;2023-05-01T09:33:58;101598.81;;;20.86;46.52
51496;BME280;37572;52.094;4.870;2023-05-01T09:36:25;101600.25;;;20.76;45.74
51496;BME280;37572;52.094;4.870;2023-05-01T09:38:52;101605.81;;;20.61;46.06
51496;BME280;37572;52.094;4.870;2023-05-01T09:41:18;101604.94;;;20.47;45.86
51496;BME280;37572;52.094;4.870;2023-05-01T09:43:51;101601.34;;;20.33;45.85
51496;BME280;37572;52.094;4.870;2023-05-01T09:46:17;101608.38;;;20.21;46.15
51496;BME280;37572;52.094;4.870;2023-05-01T09:48:56;101607.72;;;20.12;46.44
51496;BME280;37572;52.094;4.870;2023-05-01T09:51:24;101611.00;;;20.07;46.63
51496;BME280;37572;52.094;4.870;2023-05-01T09:53:54;101608.69;;;20.04;46.70
51496;BME280;37572;52.094;4.870;2023-05-01T09:56:20;101607.44;;;20.00;46.95
51496;BME280;37572;52.094;4.870;2023-05-01T09:58:48;101606.38;;;20.01;47.34
51496;BME280;37572;52.094;4.870;2023-05-01T10:01:15;101610.56;;;20.04;47.24
51496;BME280;37572;52.094;4.870;2023-05-01T10:03:42;101614.09;;;20.04;46.83
51496;BME280;37572;52.094;4.870;2023-05-01T10:06:08;101614.69;;;20.00;46.55
51496;BME280;37572;52.094;4.870;2023-05-01T10:08:47;101618.22;;;19.93;46.46
51496;BME280;37572;52.094;4.870;2023-05-01T10:11:12;101615.09;;;19.96;46.78
51496;BME280;37572;52.094;4.870;2023-05-01T10:13:38;101619.50;;;20.04;47.02
51496;BME280;37572;52.094;4.870;2023-05-01T10:16:04;101623.06;;;20.11;47.08
51496;BME280;37572;52.094;4.870;2023-05-01T10:18:34;101624.94;;;20.11;46.38
51496;BME280;37572;52.094;4.870;2023-05-01T10:21:00;101620.75;;;20.08;46.41
51496;BME280;37572;52.094;4.870;2023-05-01T10:23:25;101622.66;;;20.08;46.20
51496;BME280;37572;52.094;4.870;2023-05-01T10:25:51;101627.81;;;20.03;46.31
51496;BME280;37572;52.094;4.870;2023-05-01T10:28:19;101626.75;;;19.97;46.42
51496;BME280;37572;52.094;4.870;2023-05-01T10:30:45;101629.03;;;19.93;46.30
51496;BME280;37572;52.094;4.870;2023-05-01T10:33:12;101633.16;;;19.89;46.52
51496;BME280;37572;52.094;4.870;2023-05-01T10:35:39;101628.53;;;19.83;46.45
51496;BME280;37572;52.094;4.870;2023-05-01T10:38:11;101627.66;;;19.76;46.65
51496;BME280;37572;52.094;4.870;2023-05-01T10:45:50;101644.69;;;19.55;47.29
51496;BME280;37572;52.094;4.870;2023-05-01T10:51:10;101649.94;;;19.35;47.18
51496;BME280;37572;52.094;4.870;2023-05-01T10:53:36;101650.25;;;19.25;47.53
51496;BME280;37572;52.094;4.870;2023-05-01T10:56:02;101644.16;;;19.16;47.76
51496;BME280;37572;52.094;4.870;2023-05-01T11:01:41;101648.78;;;19.01;48.41
51496;BME280;37572;52.094;4.870;2023-05-01T11:09:49;101645.50;;;18.69;48.65
51496;BME280;37572;52.094;4.870;2023-05-01T11:15:10;101656.06;;;18.49;48.74
51496;BME280;37572;52.094;4.870;2023-05-01T11:20:08;101654.03;;;18.36;49.38
51496;BME280;37572;52.094;4.870;2023-05-01T11:22:38;101660.16;;;18.30;49.36
51496;BME280;37572;52.094;4.870;2023-05-01T11:25:17;101652.66;;;18.25;49.40
51496;BME280;37572;52.094;4.870;2023-05-01T11:27:47;101655.06;;;18.20;49.50
51496;BME280;37572;52.094;4.870;2023-05-01T11:30:13;101652.28;;;18.14;49.85
51496;BME280;37572;52.094;4.870;2023-05-01T11:32:42;101647.63;;;18.07;49.82
51496;BME280;37572;52.094;4.870;2023-05-01T11:35:16;101652.09;;;18.00;49.75
51496;BME280;37572;52.094;4.870;2023-05-01T11:37:42;101644.38;;;17.97;49.99
51496;BME280;37572;52.094;4.870;2023-05-01T11:43:04;101642.88;;;17.94;50.50
51496;BME280;37572;52.094;4.870;2023-05-01T11:45:30;101639.34;;;17.94;50.37
51496;BME280;37572;52.094;4.870;2023-05-01T11:47:56;101643.50;;;17.97;50.43
51496;BME280;37572;52.094;4.870;2023-05-01T11:50:34;101643.50;;;17.97;50.91
51496;BME280;37572;52.094;4.870;2023-05-01T11:53:01;101639.16;;;17.96;51.08
51496;BME280;37572;52.094;4.870;2023-05-01T11:55:31;101643.50;;;17.97;51.30
51496;BME280;37572;52.094;4.870;2023-05-01T11:57:56;101629.84;;;17.98;51.19
51496;BME280;37572;52.094;4.870;2023-05-01T12:03:04;101639.53;;;18.07;51.25
51496;BME280;37572;52.094;4.870;2023-05-01T12:05:34;101636.28;;;18.12;51.04
51496;BME280;37572;52.094;4.870;2023-05-01T12:08:18;101639.25;;;18.17;51.26
51496;BME280;37572;52.094;4.870;2023-05-01T12:10:54;101638.69;;;18.22;51.39
51496;BME280;37572;52.094;4.870;2023-05-01T12:13:23;101635.25;;;18.28;51.06
51496;BME280;37572;52.094;4.870;2023-05-01T12:15:50;101637.19;;;18.34;51.37
51496;BME280;37572;52.094;4.870;2023-05-01T12:18:17;101636.47;;;18.40;51.36
51496;BME280;37572;52.094;4.870;2023-05-01T12:20:48;101637.19;;;18.49;51.20
51496;BME280;37572;52.094;4.870;2023-05-01T12:23:18;101634.38;;;18.57;50.98
51496;BME280;37572;52.094;4.870;2023-05-01T12:25:44;101628.69;;;18.67;51.26
51496;BME280;37572;52.094;4.870;2023-05-01T12:28:13;101637.31;;;18.77;51.27
51496;BME280;37572;52.094;4.870;2023-05-01T12:30:40;101631.44;;;18.89;51.20
51496;BME280;37572;52.094;4.870;2023-05-01T12:33:19;101630.09;;;18.99;50.95
51496;BME280;37572;52.094;4.870;2023-05-01T12:35:46;101630.41;;;19.11;50.67
51496;BME280;37572;52.094;4.870;2023-05-01T12:38:17;101627.00;;;19.24;50.59
51496;BME280;37572;52.094;4.870;2023-05-01T12:45:52;101620.97;;;19.72;50.89
51496;BME280;37572;52.094;4.870;2023-05-01T12:48:17;101630.28;;;19.98;50.60
51496;BME280;37572;52.094;4.870;2023-05-01T12:50:44;101627.94;;;20.29;50.58
51496;BME280;37572;52.094;4.870;2023-05-01T12:53:11;101621.41;;;20.59;49.93
51496;BME280;37572;52.094;4.870;2023-05-01T12:55:46;101627.75;;;20.86;49.52
51496;BME280;37572;52.094;4.870;2023-05-01T12:58:13;101627.00;;;21.25;48.80
51496;BME280;37572;52.094;4.870;2023-05-01T13:00:53;101629.91;;;21.77;47.93
51496;BME280;37572;52.094;4.870;2023-05-01T13:03:25;101629.81;;;22.31;47.80
51496;BME280;37572;52.094;4.870;2023-05-01T13:05:55;101634.88;;;22.98;47.10
51496;BME280;37572;52.094;4.870;2023-05-01T13:08:24;101631.06;;;23.62;46.37
51496;BME280;37572;52.094;4.870;2023-05-01T13:10:52;101627.50;;;24.24;45.13
51496;BME280;37572;52.094;4.870;2023-05-01T13:13:28;101630.16;;;24.80;43.80
51496;BME280;37572;52.094;4.870;2023-05-01T13:16:03;101630.97;;;25.10;41.51
51496;BME280;37572;52.094;4.870;2023-05-01T13:18:29;101622.44;;;25.19;40.65
51496;BME280;37572;52.094;4.870;2023-05-01T13:20:55;101626.31;;;25.11;40.30
51496;BME280;37572;52.094;4.870;2023-05-01T13:23:28;101626.06;;;25.01;39.93
51496;BME280;37572;52.094;4.870;2023-05-01T13:25:57;101624.38;;;24.88;40.00
51496;BME280;37572;52.094;4.870;2023-05-01T13:28:23;101621.03;;;24.74;39.94
51496;BME280;37572;52.094;4.870;2023-05-01T13:30:48;101622.53;;;24.58;39.87
51496;BME280;37572;52.094;4.870;2023-05-01T13:33:14;101627.25;;;24.44;39.84